createdAt,value
2017-07-10T00:01:07.000Z,97.30
2017-07-10T00:03:35.157Z,97.60
2017-07-10T00:06:03.272Z,97.70
2017-07-10T00:08:31.420Z,97.80
2017-07-10T00:10:59.564Z,97.90
2017-07-10T00:13:28.462Z,98.10
2017-07-10T00:15:56.652Z,98.10
2017-07-10T00:18:24.787Z,98.30
2017-07-10T00:20:53.040Z,98.30
2017-07-10T00:23:21.171Z,98.30
2017-07-10T00:25:49.308Z,98.30
2017-07-10T00:28:17.469Z,98.20
2017-07-10T00:30:45.587Z,98.20
2017-07-10T00:33:13.743Z,98.10
2017-07-10T00:35:41.933Z,98.20
2017-07-10T00:38:10.093Z,98.40
2017-07-10T00:40:39.009Z,98.60
2017-07-10T00:43:07.137Z,98.60
2017-07-10T00:45:35.300Z,98.50
2017-07-10T00:48:03.433Z,98.50
2017-07-10T00:50:31.607Z,98.60
2017-07-10T00:52:59.748Z,98.70
2017-07-10T00:55:27.929Z,98.60
2017-07-10T00:57:56.085Z,98.70
2017-07-10T01:00:24.195Z,98.60
2017-07-10T01:02:52.367Z,98.70
2017-07-10T01:05:20.584Z,98.80
2017-07-10T01:07:48.752Z,98.70
2017-07-10T01:10:16.884Z,98.70
2017-07-10T01:12:45.013Z,98.80
2017-07-10T01:15:13.163Z,98.70
2017-07-10T01:17:41.289Z,98.80
2017-07-10T01:20:09.456Z,98.80
2017-07-10T01:22:37.593Z,98.80
2017-07-10T01:25:05.832Z,98.60
2017-07-10T01:27:33.949Z,98.80
2017-07-10T01:30:02.077Z,98.90
2017-07-10T01:32:30.208Z,99.00
2017-07-10T01:34:58.311Z,98.90
2017-07-10T01:37:26.463Z,98.90
2017-07-10T01:39:54.575Z,98.90
2017-07-10T01:42:22.757Z,98.80
2017-07-10T01:44:50.943Z,98.80
2017-07-10T01:47:19.059Z,98.90
2017-07-10T01:49:47.192Z,98.80
2017-07-10T01:52:15.323Z,98.90
2017-07-10T01:54:43.479Z,99.00
2017-07-10T01:57:11.591Z,98.90
2017-07-10T01:59:39.751Z,98.80
2017-07-10T02:02:07.889Z,98.70
2017-07-10T02:04:35.992Z,98.60
2017-07-10T02:07:04.135Z,98.70
2017-07-10T02:09:32.250Z,98.60
2017-07-10T02:12:00.397Z,98.50
2017-07-10T02:14:28.508Z,98.50
2017-07-10T02:16:56.660Z,98.40
2017-07-10T02:19:24.793Z,98.40
2017-07-10T02:21:52.910Z,98.50
2017-07-10T02:24:21.088Z,98.40
2017-07-10T02:26:49.217Z,98.10
2017-07-10T02:29:17.347Z,98.10
2017-07-10T02:31:46.256Z,98.10
2017-07-10T02:34:14.365Z,98.10
2017-07-10T02:36:42.505Z,98.00
2017-07-10T02:39:10.661Z,98.10
2017-07-10T02:41:38.784Z,98.10
2017-07-10T02:44:07.675Z,97.90
2017-07-10T02:46:36.698Z,98.00
2017-07-10T02:49:04.829Z,98.00
2017-07-10T02:51:33.062Z,98.00
2017-07-10T02:54:01.203Z,98.10
2017-07-10T02:56:29.325Z,98.00
2017-07-10T02:58:57.940Z,98.40
2017-07-10T03:01:26.235Z,98.10
2017-07-10T03:03:54.367Z,98.20
2017-07-10T03:06:22.507Z,98.20
2017-07-10T03:08:51.565Z,98.40
2017-07-10T03:11:19.696Z,98.30
2017-07-10T03:13:47.852Z,98.40
2017-07-10T03:16:15.999Z,98.40
2017-07-10T03:18:44.119Z,98.40
2017-07-10T03:21:12.261Z,98.40
2017-07-10T03:23:41.130Z,98.30
2017-07-10T03:26:09.248Z,98.30
2017-07-10T03:28:37.395Z,98.30
2017-07-10T03:31:05.511Z,98.40
2017-07-10T03:33:33.632Z,98.50
2017-07-10T03:36:01.790Z,98.60
2017-07-10T03:38:29.893Z,98.90
2017-07-10T03:40:58.009Z,98.50
2017-07-10T03:43:26.131Z,98.50
2017-07-10T03:45:54.254Z,98.50
2017-07-10T03:48:22.494Z,98.40
2017-07-10T03:50:50.655Z,98.30
2017-07-10T03:53:18.780Z,98.30
2017-07-10T03:55:46.922Z,98.60
2017-07-10T03:58:15.842Z,98.70
2017-07-10T04:00:44.842Z,98.70
2017-07-10T04:03:12.978Z,98.50
2017-07-10T04:05:41.078Z,98.50
2017-07-10T04:08:09.211Z,98.50
2017-07-10T04:10:37.342Z,98.60
2017-07-10T04:13:05.498Z,98.50
2017-07-10T04:15:33.632Z,98.60
2017-07-10T04:18:01.739Z,98.60
2017-07-10T04:20:29.870Z,98.60
2017-07-10T04:22:58.027Z,98.50
2017-07-10T04:25:26.911Z,98.40
2017-07-10T04:27:55.050Z,98.30
2017-07-10T04:30:23.203Z,98.40
2017-07-10T04:32:51.344Z,98.40
2017-07-10T04:35:19.448Z,98.40
2017-07-10T04:37:47.605Z,98.40
2017-07-10T04:40:16.493Z,98.50
2017-07-10T04:42:44.598Z,98.40
2017-07-10T04:45:12.742Z,98.50
2017-07-10T04:47:40.877Z,98.60
2017-07-10T04:50:08.998Z,98.50
2017-07-10T04:52:37.173Z,98.50
2017-07-10T04:55:05.288Z,98.50
2017-07-10T04:57:33.419Z,98.30
2017-07-10T05:00:01.596Z,98.30
2017-07-10T05:02:29.708Z,98.10
2017-07-10T05:04:57.816Z,98.10
2017-07-10T05:07:25.946Z,97.90
2017-07-10T05:09:54.078Z,97.80
2017-07-10T05:12:22.211Z,97.80
2017-07-10T05:14:50.358Z,97.60
2017-07-10T05:17:18.503Z,97.40
2017-07-10T05:19:47.396Z,97.40
2017-07-10T05:22:16.326Z,96.80
2017-07-10T05:24:44.467Z,96.80
2017-07-10T05:27:12.612Z,96.70
2017-07-10T05:29:40.757Z,96.40
2017-07-10T05:32:08.876Z,96.30
2017-07-10T05:34:37.001Z,96.40
2017-07-10T05:37:05.146Z,96.10
2017-07-10T05:39:33.283Z,96.10
2017-07-10T05:42:01.397Z,96.00
2017-07-10T05:44:29.624Z,96.00
2017-07-10T05:46:57.697Z,96.10
2017-07-10T05:49:25.820Z,96.00
2017-07-10T05:51:53.962Z,96.10
2017-07-10T05:54:22.107Z,96.10
2017-07-10T05:56:50.224Z,95.90
2017-07-10T05:59:18.377Z,95.50
2017-07-10T06:01:46.478Z,95.10
2017-07-10T06:04:14.637Z,94.70
2017-07-10T06:06:42.810Z,94.40
2017-07-10T06:09:10.976Z,94.20
2017-07-10T06:11:39.115Z,94.00
2017-07-10T06:14:07.260Z,94.10
2017-07-10T06:16:35.411Z,94.10
2017-07-10T06:19:04.348Z,93.70
2017-07-10T06:21:32.550Z,93.70
2017-07-10T06:24:01.458Z,93.90
2017-07-10T06:26:30.615Z,93.90
2017-07-10T06:28:58.819Z,94.00
2017-07-10T06:31:26.957Z,93.20
2017-07-10T06:33:55.078Z,92.70
2017-07-10T06:36:23.294Z,92.80
2017-07-10T06:38:51.432Z,92.50
2017-07-10T06:41:19.585Z,92.40
2017-07-10T06:43:47.790Z,92.30
2017-07-10T06:46:15.919Z,92.40
2017-07-10T06:48:44.041Z,92.20
2017-07-10T06:51:12.256Z,92.20
2017-07-10T06:53:40.368Z,92.20
2017-07-10T06:56:08.478Z,92.00
2017-07-10T06:58:36.619Z,91.90
2017-07-10T07:01:04.731Z,92.00
2017-07-10T07:03:32.931Z,92.10
2017-07-10T07:06:01.066Z,91.40
2017-07-10T07:08:29.209Z,91.20
2017-07-10T07:10:57.377Z,91.10
2017-07-10T07:13:25.547Z,91.20
2017-07-10T07:15:53.682Z,91.50
2017-07-10T07:18:21.938Z,91.60
2017-07-10T07:20:50.114Z,91.60
2017-07-10T07:23:18.246Z,91.80
2017-07-10T07:25:46.439Z,91.90
2017-07-10T07:28:14.574Z,91.70
2017-07-10T07:30:42.846Z,91.90
2017-07-10T07:33:11.049Z,91.40
2017-07-10T07:35:39.168Z,91.20
2017-07-10T07:38:07.288Z,90.80
2017-07-10T07:40:35.434Z,90.80
2017-07-10T07:43:04.338Z,88.70
2017-07-10T07:45:33.222Z,86.90
2017-07-10T07:48:02.136Z,84.70
2017-07-10T07:50:30.248Z,84.70
2017-07-10T07:52:58.403Z,84.30
2017-07-10T07:55:26.560Z,85.10
2017-07-10T07:57:54.718Z,85.10
2017-07-10T08:00:22.863Z,84.60
2017-07-10T08:02:51.022Z,80.60
2017-07-10T08:05:19.156Z,78.00
2017-07-10T08:07:48.068Z,76.30
2017-07-10T08:10:16.225Z,76.30
2017-07-10T08:12:44.419Z,77.60
2017-07-10T08:15:12.567Z,77.80
2017-07-10T08:17:40.709Z,79.80
2017-07-10T08:20:08.849Z,80.80
2017-07-10T08:22:36.966Z,80.30
2017-07-10T08:25:05.906Z,76.90
2017-07-10T08:27:34.839Z,76.40
2017-07-10T08:30:02.976Z,76.40
2017-07-10T08:32:31.135Z,74.10
2017-07-10T08:34:59.268Z,72.70
2017-07-10T08:37:27.472Z,72.50
2017-07-10T08:39:55.628Z,73.10
2017-07-10T08:42:24.538Z,75.40
2017-07-10T08:44:52.645Z,75.40
2017-07-10T08:47:20.799Z,73.50
2017-07-10T08:49:49.551Z,70.20
2017-07-10T08:52:17.659Z,70.00
2017-07-10T08:54:45.822Z,70.10
2017-07-10T08:57:14.003Z,70.80
2017-07-10T08:59:42.919Z,71.90
2017-07-10T09:02:11.192Z,71.90
2017-07-10T09:04:39.307Z,70.20
2017-07-10T09:07:07.451Z,67.50
2017-07-10T09:09:35.830Z,68.00
2017-07-10T09:12:03.963Z,69.50
2017-07-10T09:14:32.083Z,69.90
2017-07-10T09:17:00.246Z,68.10
2017-07-10T09:19:28.534Z,68.80
2017-07-10T09:21:56.775Z,68.30
2017-07-10T09:24:24.985Z,68.90
2017-07-10T09:26:53.223Z,69.20
2017-07-10T09:29:21.376Z,68.70
2017-07-10T09:31:49.503Z,68.70
2017-07-10T09:34:17.630Z,70.60
2017-07-10T09:36:45.764Z,71.00
2017-07-10T09:39:13.933Z,71.30
2017-07-10T09:41:42.062Z,69.70
2017-07-10T09:44:10.187Z,69.50
2017-07-10T09:46:39.234Z,69.00
2017-07-10T09:49:07.375Z,68.90
2017-07-10T09:51:35.505Z,68.40
2017-07-10T09:54:04.518Z,68.60
2017-07-10T09:56:32.642Z,68.60
2017-07-10T09:59:00.782Z,67.60
2017-07-10T10:01:28.919Z,67.70
2017-07-10T10:03:57.057Z,67.50
2017-07-10T10:06:25.223Z,68.20
2017-07-10T10:08:54.127Z,67.50
2017-07-10T10:11:22.264Z,67.60
2017-07-10T10:13:50.441Z,68.30
2017-07-10T10:16:18.561Z,68.60
2017-07-10T10:18:46.666Z,68.70
2017-07-10T10:21:14.821Z,68.80
2017-07-10T10:23:42.973Z,69.10
2017-07-10T10:26:11.154Z,69.70
2017-07-10T10:28:39.285Z,70.00
2017-07-10T10:31:07.782Z,71.60
2017-07-10T10:33:35.968Z,72.00
2017-07-10T10:36:04.106Z,72.70
2017-07-10T10:38:32.364Z,73.00
2017-07-10T10:41:00.504Z,73.20
2017-07-10T10:43:28.618Z,73.30
2017-07-10T10:45:56.759Z,70.90
2017-07-10T10:48:25.681Z,71.60
2017-07-10T10:50:53.792Z,71.60
2017-07-10T10:53:22.024Z,71.60
2017-07-10T10:55:50.186Z,70.40
2017-07-10T10:58:18.294Z,70.40
2017-07-10T11:00:46.406Z,69.70
2017-07-10T11:03:14.578Z,70.70
2017-07-10T11:05:42.692Z,71.30
2017-07-10T11:08:10.825Z,70.10
2017-07-10T11:10:39.839Z,72.00
2017-07-10T11:13:07.989Z,71.90
2017-07-10T11:15:36.958Z,73.50
2017-07-10T11:18:05.105Z,74.20
2017-07-10T11:20:33.228Z,75.70
2017-07-10T11:23:01.410Z,75.20
2017-07-10T11:25:29.687Z,75.80
2017-07-10T11:27:58.626Z,75.30
2017-07-10T11:30:26.803Z,75.70
2017-07-10T11:32:54.998Z,76.10
2017-07-10T11:35:23.161Z,76.40
2017-07-10T11:37:51.321Z,76.70
2017-07-10T11:40:19.477Z,75.50
2017-07-10T11:42:47.596Z,75.40
2017-07-10T11:45:16.012Z,76.50
2017-07-10T11:47:44.223Z,76.70
2017-07-10T11:50:12.447Z,76.80
2017-07-10T11:52:40.590Z,79.30
2017-07-10T11:55:08.725Z,78.00
2017-07-10T11:57:36.834Z,77.20
2017-07-10T12:00:04.997Z,77.20
2017-07-10T12:02:33.285Z,78.40
2017-07-10T12:05:01.393Z,79.30
2017-07-10T12:07:29.536Z,79.90
2017-07-10T12:09:57.688Z,80.10
2017-07-10T12:12:25.839Z,80.50
2017-07-10T12:14:53.975Z,81.90
2017-07-10T12:17:22.127Z,82.70
2017-07-10T12:19:50.381Z,82.30
2017-07-10T12:22:18.605Z,83.00
2017-07-10T12:24:47.101Z,84.40
2017-07-10T12:27:15.531Z,86.20
2017-07-10T12:29:43.690Z,86.10
2017-07-10T12:32:12.355Z,87.40
2017-07-10T12:34:40.474Z,88.10
2017-07-10T12:37:08.595Z,89.20
2017-07-10T12:39:37.361Z,89.90
2017-07-10T12:42:05.492Z,90.10
2017-07-10T12:44:33.665Z,90.60
2017-07-10T12:47:02.615Z,91.10
2017-07-10T12:49:32.270Z,91.10
2017-07-10T12:52:00.611Z,91.00
2017-07-10T12:54:28.829Z,91.10
2017-07-10T12:56:57.023Z,91.50
2017-07-10T12:59:25.186Z,91.70
2017-07-10T13:01:53.426Z,92.00
2017-07-10T13:04:21.576Z,92.30
2017-07-10T13:06:49.723Z,92.40
2017-07-10T13:09:17.924Z,92.50
2017-07-10T13:11:46.047Z,92.70
2017-07-10T13:14:14.193Z,92.90
2017-07-10T13:16:42.347Z,93.00
2017-07-10T13:19:10.468Z,93.20
2017-07-10T13:21:38.592Z,93.50
2017-07-10T13:24:06.767Z,93.80
2017-07-10T13:26:34.917Z,94.20
2017-07-10T13:29:03.064Z,94.50
2017-07-10T13:31:31.273Z,94.00
2017-07-10T13:33:59.431Z,94.00
2017-07-10T13:36:27.597Z,94.20
2017-07-10T13:38:56.531Z,94.40
2017-07-10T13:41:24.677Z,94.40
2017-07-10T13:43:53.647Z,94.20
2017-07-10T13:46:21.837Z,94.20
2017-07-10T13:48:50.019Z,94.00
2017-07-10T13:51:18.141Z,94.00
2017-07-10T13:53:46.273Z,94.50
2017-07-10T13:56:14.430Z,95.10
2017-07-10T13:58:43.388Z,96.40
2017-07-10T14:01:11.567Z,97.00
2017-07-10T14:03:39.704Z,97.30
2017-07-10T14:06:07.852Z,97.60
2017-07-10T14:08:36.022Z,98.00
2017-07-10T14:11:04.155Z,98.70
2017-07-10T14:13:32.365Z,98.70
2017-07-10T14:16:00.556Z,97.10
2017-07-10T14:18:28.728Z,96.80
2017-07-10T14:20:56.874Z,97.20
2017-07-10T14:23:25.015Z,97.40
2017-07-10T14:25:53.183Z,97.60
2017-07-10T14:28:21.314Z,97.30
2017-07-10T14:30:49.484Z,97.00
2017-07-10T14:33:17.615Z,97.30
2017-07-10T14:35:45.731Z,97.00
2017-07-10T14:38:14.253Z,96.90
2017-07-10T14:40:42.419Z,97.30
2017-07-10T14:43:10.544Z,97.50
2017-07-10T14:45:39.066Z,97.00
2017-07-10T14:48:07.211Z,97.40
2017-07-10T14:50:35.406Z,97.90
2017-07-10T14:53:03.607Z,98.20
2017-07-10T14:55:32.526Z,97.70
2017-07-10T14:58:00.670Z,97.70
2017-07-10T15:00:28.893Z,98.30
2017-07-10T15:02:57.040Z,98.30
2017-07-10T15:05:25.958Z,97.90
2017-07-10T15:07:54.105Z,97.80
2017-07-10T15:10:22.290Z,98.40
2017-07-10T15:12:50.422Z,98.30
2017-07-10T15:15:18.575Z,98.40
2017-07-10T15:17:46.781Z,98.70
2017-07-10T15:20:14.923Z,99.00
2017-07-10T15:22:43.147Z,99.10
2017-07-10T15:25:11.287Z,99.40
2017-07-10T15:27:39.464Z,99.40
2017-07-10T15:30:07.627Z,99.50
2017-07-10T15:32:35.777Z,99.40
2017-07-10T15:35:03.919Z,99.70
2017-07-10T15:37:32.048Z,99.70
2017-07-10T15:40:00.251Z,99.90
2017-07-10T15:42:29.147Z,99.90
2017-07-10T15:44:57.380Z,99.90
2017-07-10T15:47:25.546Z,99.90
2017-07-10T15:49:53.686Z,99.90
2017-07-10T15:52:21.856Z,99.90
2017-07-10T15:54:50.798Z,99.90
2017-07-10T15:57:20.011Z,99.90
2017-07-10T15:59:48.136Z,99.90
2017-07-10T16:02:16.339Z,99.90
2017-07-10T16:04:44.460Z,99.90
2017-07-10T16:07:12.575Z,99.90
2017-07-10T16:09:40.746Z,99.90
2017-07-10T16:12:08.889Z,99.90
2017-07-10T16:14:37.085Z,99.90
2017-07-10T16:17:05.293Z,99.90
2017-07-10T16:19:33.445Z,99.90
2017-07-10T16:22:01.591Z,99.90
2017-07-10T16:24:30.531Z,99.90
2017-07-10T16:26:58.667Z,99.60
2017-07-10T16:29:26.815Z,99.90
2017-07-10T16:31:55.057Z,99.30
2017-07-10T16:34:23.185Z,99.20
2017-07-10T16:36:51.345Z,98.70
2017-07-10T16:39:20.493Z,98.60
2017-07-10T16:41:48.639Z,98.80
2017-07-10T16:44:16.782Z,98.80
2017-07-10T16:46:44.964Z,98.60
2017-07-10T16:49:13.545Z,99.40
2017-07-10T16:51:41.718Z,99.40
2017-07-10T16:54:10.017Z,99.20
2017-07-10T16:56:38.158Z,99.60
2017-07-10T16:59:06.276Z,99.60
2017-07-10T17:01:34.476Z,99.30
2017-07-10T17:04:02.620Z,99.20
2017-07-10T17:06:30.736Z,99.50
2017-07-10T17:08:58.909Z,99.60
2017-07-10T17:11:27.018Z,99.50
2017-07-10T17:13:55.152Z,99.60
2017-07-10T17:16:23.321Z,99.40
2017-07-10T17:18:51.437Z,99.80
2017-07-10T17:21:19.564Z,99.80
2017-07-10T17:23:47.730Z,99.70
2017-07-10T17:26:15.859Z,99.90
2017-07-10T17:28:44.011Z,99.50
2017-07-10T17:31:12.944Z,99.70
2017-07-10T17:33:41.077Z,99.70
2017-07-10T17:36:09.253Z,99.90
2017-07-10T17:38:37.393Z,99.90
2017-07-10T17:41:06.141Z,99.90
2017-07-10T17:43:34.298Z,99.90
2017-07-10T17:46:02.439Z,99.80
2017-07-10T17:48:30.567Z,99.90
2017-07-10T17:50:58.684Z,99.90
2017-07-10T17:53:26.841Z,99.90
2017-07-10T17:55:55.513Z,99.90
2017-07-10T17:58:23.645Z,99.90
2017-07-10T18:00:52.752Z,99.90
2017-07-10T18:03:20.874Z,99.90
2017-07-10T18:05:49.014Z,99.90
2017-07-10T18:08:17.188Z,99.90
2017-07-10T18:10:45.332Z,99.90
2017-07-10T18:13:14.256Z,99.90
2017-07-10T18:15:42.455Z,99.90
2017-07-10T18:18:10.590Z,99.90
2017-07-10T18:20:38.891Z,99.90
2017-07-10T18:23:07.040Z,99.90
2017-07-10T18:25:35.943Z,99.90
2017-07-10T18:28:04.061Z,99.90
2017-07-10T18:30:33.771Z,99.90
2017-07-10T18:33:01.938Z,99.90
2017-07-10T18:35:30.905Z,99.90
2017-07-10T18:38:00.277Z,99.90
2017-07-10T18:40:29.207Z,99.90
2017-07-10T18:42:57.340Z,99.90
2017-07-10T18:45:25.954Z,99.90
2017-07-10T18:47:54.739Z,99.90
2017-07-10T18:50:22.994Z,99.90
2017-07-10T18:52:51.917Z,99.90
2017-07-10T18:55:20.100Z,99.90
2017-07-10T18:57:48.228Z,99.90
2017-07-10T19:00:16.381Z,99.90
2017-07-10T19:02:46.289Z,99.90
2017-07-10T19:05:16.378Z,99.90
2017-07-10T19:07:45.235Z,99.90
2017-07-10T19:10:14.182Z,99.90
2017-07-10T19:12:44.886Z,99.90
2017-07-10T19:15:13.078Z,99.90
2017-07-10T19:17:41.246Z,99.90
2017-07-10T19:20:09.377Z,99.90
2017-07-10T19:22:39.693Z,99.90
2017-07-10T19:25:08.489Z,99.90
2017-07-10T19:27:36.638Z,99.90
2017-07-10T19:30:04.853Z,99.90
2017-07-10T19:32:32.981Z,99.90
2017-07-10T19:35:01.903Z,99.90
2017-07-10T19:37:30.071Z,99.90
2017-07-10T19:39:58.226Z,99.90
2017-07-10T19:42:27.833Z,99.90
2017-07-10T19:44:56.018Z,99.90
2017-07-10T19:47:24.586Z,99.90
2017-07-10T19:49:52.909Z,99.90
2017-07-10T19:52:21.119Z,99.90
2017-07-10T19:54:49.245Z,99.90
2017-07-10T19:57:18.508Z,99.90
2017-07-10T19:59:46.692Z,99.90
2017-07-10T20:02:15.872Z,99.90
2017-07-10T20:04:44.702Z,99.90
2017-07-10T20:07:13.309Z,99.90
2017-07-10T20:09:41.454Z,99.90
2017-07-10T20:12:10.172Z,99.90
2017-07-10T20:14:38.450Z,99.90
2017-07-10T20:17:06.597Z,99.90
2017-07-10T20:19:34.714Z,99.90
2017-07-10T20:22:03.358Z,99.90
2017-07-10T20:24:31.908Z,99.90
2017-07-10T20:27:00.139Z,99.90
2017-07-10T20:29:28.415Z,99.90
2017-07-10T20:31:57.384Z,99.90
2017-07-10T20:34:25.535Z,99.90
2017-07-10T20:36:53.702Z,99.90
2017-07-10T20:39:21.845Z,99.90
2017-07-10T20:41:50.323Z,99.90
2017-07-10T20:44:19.286Z,99.90
2017-07-10T20:46:47.961Z,99.90
2017-07-10T20:49:16.484Z,99.90
2017-07-10T20:51:44.691Z,99.90
2017-07-10T20:54:12.802Z,99.90
2017-07-10T20:56:41.686Z,99.90
2017-07-10T20:59:09.838Z,99.90
2017-07-10T21:01:37.957Z,99.90
2017-07-10T21:04:06.090Z,99.90
2017-07-10T21:06:34.248Z,99.90
2017-07-10T21:09:02.377Z,99.90
2017-07-10T21:11:32.057Z,99.90
2017-07-10T21:14:01.000Z,99.90
2017-07-10T21:16:30.104Z,99.90
2017-07-10T21:18:58.239Z,99.90
2017-07-10T21:21:27.274Z,99.90
2017-07-10T21:23:55.424Z,99.90
2017-07-10T21:26:23.591Z,99.90
2017-07-10T21:28:51.788Z,99.90
2017-07-10T21:31:20.561Z,99.90
2017-07-10T21:33:48.702Z,99.90
2017-07-10T21:36:17.311Z,99.90
2017-07-10T21:38:47.136Z,99.90
2017-07-10T21:41:15.292Z,99.90
2017-07-10T21:43:44.371Z,99.90
2017-07-10T21:46:12.515Z,99.90
2017-07-10T21:48:40.702Z,99.90
2017-07-10T21:51:09.576Z,99.90
2017-07-10T21:53:38.481Z,99.90
2017-07-10T21:56:06.614Z,99.90
2017-07-10T21:58:34.737Z,99.90
2017-07-10T22:01:02.869Z,99.90
2017-07-10T22:03:31.035Z,99.90
2017-07-10T22:05:59.201Z,99.90
2017-07-10T22:08:27.629Z,99.90
2017-07-10T22:10:55.794Z,99.90
2017-07-10T22:13:23.925Z,99.90
2017-07-10T22:15:52.136Z,99.90
2017-07-10T22:18:20.315Z,99.90
2017-07-10T22:20:48.445Z,99.90
2017-07-10T22:23:16.581Z,99.90
2017-07-10T22:25:44.727Z,99.90
2017-07-10T22:28:13.621Z,99.90
2017-07-10T22:30:41.780Z,99.90
2017-07-10T22:33:09.968Z,99.90
2017-07-10T22:35:38.116Z,99.90
2017-07-10T22:38:07.028Z,99.90
2017-07-10T22:40:35.211Z,99.90
2017-07-10T22:43:03.340Z,99.90
2017-07-10T22:45:31.491Z,99.90
2017-07-10T22:47:59.645Z,99.90
2017-07-10T22:50:27.813Z,99.90
2017-07-10T22:52:55.941Z,99.90
2017-07-10T22:55:24.092Z,99.90
2017-07-10T22:57:52.242Z,99.90
2017-07-10T23:00:20.363Z,99.90
2017-07-10T23:02:48.538Z,99.90
2017-07-10T23:05:17.419Z,99.90
2017-07-10T23:07:45.571Z,99.90
2017-07-10T23:10:13.734Z,99.90
2017-07-10T23:12:41.851Z,99.90
2017-07-10T23:15:10.739Z,99.90
2017-07-10T23:17:38.884Z,99.90
2017-07-10T23:22:51.012Z,99.90
2017-07-10T23:25:19.148Z,99.90
2017-07-10T23:27:47.330Z,99.90
2017-07-10T23:30:15.567Z,99.90
2017-07-10T23:32:43.729Z,99.90
2017-07-10T23:35:11.909Z,99.90
2017-07-10T23:37:40.095Z,99.90
2017-07-10T23:40:08.232Z,99.90
2017-07-10T23:42:36.374Z,99.90
2017-07-10T23:45:04.526Z,99.90
2017-07-10T23:47:32.659Z,99.90
2017-07-10T23:50:00.790Z,99.90
2017-07-10T23:52:28.929Z,99.90
2017-07-10T23:54:57.777Z,99.90
2017-07-10T23:57:26.672Z,99.90
2017-07-10T23:59:54.843Z,99.90
